createdAt,value
2022-07-29T00:01:42.917Z,14.79
2022-07-29T00:04:10.340Z,14.73
2022-07-29T00:06:37.736Z,14.65
2022-07-29T00:09:05.398Z,14.59
2022-07-29T00:11:32.755Z,14.55
2022-07-29T00:14:00.198Z,14.52
2022-07-29T00:16:27.620Z,14.50
2022-07-29T00:18:55.115Z,14.46
2022-07-29T00:21:22.363Z,14.42
2022-07-29T00:23:49.713Z,14.39
2022-07-29T00:26:16.865Z,14.35
2022-07-29T00:28:44.241Z,14.31
2022-07-29T00:31:12.173Z,14.28
2022-07-29T00:33:39.439Z,14.24
2022-07-29T00:36:07.118Z,14.22
2022-07-29T00:38:34.458Z,14.19
2022-07-29T00:41:01.940Z,14.16
2022-07-29T00:43:29.378Z,14.12
2022-07-29T00:45:57.259Z,14.08
2022-07-29T00:48:24.819Z,14.04
2022-07-29T00:50:52.485Z,14.01
2022-07-29T00:53:21.756Z,13.99
2022-07-29T00:55:49.462Z,13.93
2022-07-29T00:58:16.900Z,13.84
2022-07-29T01:00:45.499Z,13.77
2022-07-29T01:03:13.536Z,13.72
2022-07-29T01:05:50.429Z,13.70
2022-07-29T01:08:20.527Z,13.67
2022-07-29T01:10:48.391Z,13.63
2022-07-29T01:13:16.475Z,13.60
2022-07-29T01:15:49.469Z,13.59
2022-07-29T01:18:25.691Z,13.56
2022-07-29T01:21:15.095Z,13.51
2022-07-29T01:23:59.855Z,13.46
2022-07-29T01:26:59.832Z,13.39
2022-07-29T01:30:00.324Z,13.32
2022-07-29T01:32:30.687Z,13.26
2022-07-29T01:35:16.814Z,13.20
2022-07-29T01:38:06.804Z,13.12
2022-07-29T01:40:53.316Z,13.05
2022-07-29T01:43:30.968Z,12.99
2022-07-29T01:46:02.234Z,12.90
2022-07-29T01:48:40.801Z,12.82
2022-07-29T01:51:21.858Z,12.76
2022-07-29T01:53:52.077Z,12.75
2022-07-29T01:56:21.329Z,12.74
2022-07-29T01:58:50.162Z,12.74
2022-07-29T02:01:18.297Z,12.73
2022-07-29T02:03:47.041Z,12.72
2022-07-29T02:06:17.354Z,12.71
2022-07-29T02:08:45.116Z,12.70
2022-07-29T02:11:13.073Z,12.71
2022-07-29T02:13:41.654Z,12.72
2022-07-29T02:16:10.293Z,12.73
2022-07-29T02:18:39.535Z,12.73
2022-07-29T02:21:07.215Z,12.73
2022-07-29T02:23:50.641Z,12.73
2022-07-29T02:26:22.157Z,12.71
2022-07-29T02:28:51.925Z,12.69
2022-07-29T02:31:21.053Z,12.67
2022-07-29T02:33:49.158Z,12.66
2022-07-29T02:36:18.577Z,12.66
2022-07-29T02:38:52.401Z,12.64
2022-07-29T02:41:28.073Z,12.62
2022-07-29T02:44:03.964Z,12.61
2022-07-29T02:46:33.904Z,12.60
2022-07-29T02:49:09.263Z,12.57
2022-07-29T02:52:26.474Z,12.53
2022-07-29T02:55:01.276Z,12.50
2022-07-29T02:57:31.966Z,12.48
2022-07-29T03:00:01.783Z,12.49
2022-07-29T03:02:30.215Z,12.50
2022-07-29T03:04:59.908Z,12.50
2022-07-29T03:07:28.614Z,12.51
2022-07-29T03:09:56.053Z,12.51
2022-07-29T03:12:23.813Z,12.51
2022-07-29T03:14:52.619Z,12.52
2022-07-29T03:17:20.197Z,12.53
2022-07-29T03:19:47.837Z,12.55
2022-07-29T03:22:15.386Z,12.56
2022-07-29T03:24:47.761Z,12.59
2022-07-29T03:27:15.234Z,12.61
2022-07-29T03:29:49.626Z,12.63
2022-07-29T03:32:23.922Z,12.66
2022-07-29T03:34:52.642Z,12.68
2022-07-29T03:37:19.996Z,12.71
2022-07-29T03:39:47.765Z,12.74
2022-07-29T03:42:17.164Z,12.77
2022-07-29T03:44:46.694Z,12.79
2022-07-29T03:47:16.603Z,12.83
2022-07-29T03:49:44.138Z,12.88
2022-07-29T03:52:11.603Z,12.93
2022-07-29T03:54:38.975Z,12.98
2022-07-29T03:57:07.755Z,13.05
2022-07-29T03:59:35.515Z,13.11
2022-07-29T04:02:04.562Z,13.19
2022-07-29T04:04:35.031Z,13.28
2022-07-29T04:07:02.387Z,13.37
2022-07-29T04:09:29.734Z,13.47
2022-07-29T04:12:03.158Z,13.60
2022-07-29T04:14:36.033Z,13.75
2022-07-29T04:17:05.050Z,13.89
2022-07-29T04:19:32.868Z,14.04
2022-07-29T04:22:01.154Z,14.22
2022-07-29T04:24:29.373Z,14.39
2022-07-29T04:26:56.676Z,14.58
2022-07-29T04:29:23.936Z,14.78
2022-07-29T04:31:51.498Z,14.99
2022-07-29T04:34:19.697Z,15.21
2022-07-29T04:36:47.423Z,15.44
2022-07-29T04:39:18.061Z,15.69
2022-07-29T04:41:48.578Z,15.97
2022-07-29T04:44:16.145Z,16.24
2022-07-29T04:46:44.767Z,16.52
2022-07-29T04:49:13.482Z,16.78
2022-07-29T04:51:41.296Z,17.04
2022-07-29T04:54:08.954Z,17.29
2022-07-29T04:56:36.286Z,17.55
2022-07-29T04:59:03.453Z,17.80
2022-07-29T05:01:30.890Z,18.02
2022-07-29T05:04:00.642Z,18.18
2022-07-29T05:06:28.276Z,18.30
2022-07-29T05:08:55.527Z,18.37
2022-07-29T05:11:26.150Z,18.38
2022-07-29T05:13:57.415Z,18.38
2022-07-29T05:16:24.807Z,18.39
2022-07-29T05:18:52.208Z,18.38
2022-07-29T05:21:19.577Z,18.40
2022-07-29T05:23:46.955Z,18.39
2022-07-29T05:26:14.393Z,18.36
2022-07-29T05:28:41.837Z,18.31
2022-07-29T05:31:09.247Z,18.28
2022-07-29T05:33:37.566Z,18.28
2022-07-29T05:36:08.585Z,18.43
2022-07-29T05:38:37.115Z,18.67
2022-07-29T05:41:05.600Z,18.83
2022-07-29T05:43:33.554Z,18.87
2022-07-29T05:46:01.222Z,18.90
2022-07-29T05:48:29.698Z,18.91
2022-07-29T05:50:57.138Z,18.94
2022-07-29T05:53:24.398Z,19.01
2022-07-29T05:55:53.468Z,19.05
2022-07-29T05:58:21.361Z,19.08
2022-07-29T06:00:48.600Z,19.13
2022-07-29T06:03:15.976Z,19.18
2022-07-29T06:05:43.308Z,19.27
2022-07-29T06:08:10.671Z,19.36
2022-07-29T06:10:38.028Z,19.46
2022-07-29T06:13:05.271Z,19.60
2022-07-29T06:15:32.769Z,19.77
2022-07-29T06:18:01.727Z,19.95
2022-07-29T06:20:33.300Z,20.14
2022-07-29T06:23:01.044Z,20.30
2022-07-29T06:25:32.081Z,20.47
2022-07-29T06:27:59.550Z,20.67
2022-07-29T06:30:27.089Z,20.81
2022-07-29T06:32:54.551Z,20.90
2022-07-29T06:35:38.919Z,20.95
2022-07-29T06:38:25.631Z,21.05
2022-07-29T06:41:04.050Z,21.16
2022-07-29T06:43:35.192Z,21.31
2022-07-29T06:46:05.880Z,21.49
2022-07-29T06:48:34.043Z,21.66
2022-07-29T06:51:01.952Z,21.76
2022-07-29T06:53:30.222Z,21.83
2022-07-29T06:55:59.725Z,21.87
2022-07-29T06:58:28.062Z,21.93
2022-07-29T07:00:59.218Z,21.98
2022-07-29T07:03:27.204Z,22.00
2022-07-29T07:05:55.616Z,22.03
2022-07-29T07:08:23.663Z,22.13
2022-07-29T07:10:52.373Z,22.29
2022-07-29T07:13:20.625Z,22.51
2022-07-29T07:15:49.724Z,22.75
2022-07-29T07:18:19.456Z,23.05
2022-07-29T07:20:47.015Z,23.28
2022-07-29T07:23:15.501Z,23.42
2022-07-29T07:25:43.539Z,23.56
2022-07-29T07:28:11.003Z,23.70
2022-07-29T07:30:39.635Z,23.79
2022-07-29T07:33:07.350Z,23.82
2022-07-29T07:35:34.801Z,23.85
2022-07-29T07:38:02.059Z,23.89
2022-07-29T07:40:30.455Z,23.96
2022-07-29T07:42:58.297Z,24.05
2022-07-29T07:45:27.028Z,24.11
2022-07-29T07:47:55.472Z,24.19
2022-07-29T07:50:23.956Z,24.26
2022-07-29T07:52:56.627Z,24.31
2022-07-29T07:55:24.086Z,24.35
2022-07-29T07:57:51.743Z,24.38
2022-07-29T08:00:19.209Z,24.40
2022-07-29T08:02:51.395Z,24.42
2022-07-29T08:05:19.459Z,24.43
2022-07-29T08:07:48.125Z,24.45
2022-07-29T08:10:37.294Z,24.50
2022-07-29T08:13:06.605Z,24.60
2022-07-29T08:15:34.045Z,24.70
2022-07-29T08:18:07.919Z,24.81
2022-07-29T08:20:37.173Z,24.90
2022-07-29T08:23:05.868Z,24.95
2022-07-29T08:25:38.509Z,25.02
2022-07-29T08:28:07.937Z,25.10
2022-07-29T08:30:36.207Z,25.17
2022-07-29T08:33:03.673Z,25.23
2022-07-29T08:35:35.058Z,25.26
2022-07-29T08:38:04.916Z,25.31
2022-07-29T08:40:33.117Z,25.37
2022-07-29T08:43:06.614Z,25.41
2022-07-29T08:45:47.282Z,25.47
2022-07-29T08:48:18.012Z,25.55
2022-07-29T08:50:46.702Z,25.61
2022-07-29T08:53:17.778Z,25.66
2022-07-29T08:55:46.766Z,25.78
2022-07-29T08:58:15.768Z,25.90
2022-07-29T09:00:49.515Z,25.99
2022-07-29T09:03:20.816Z,26.12
2022-07-29T09:05:49.649Z,26.21
2022-07-29T09:08:18.633Z,26.31
2022-07-29T09:10:46.509Z,26.41
2022-07-29T09:13:14.064Z,26.58
2022-07-29T09:15:41.421Z,26.69
2022-07-29T09:18:19.761Z,26.82
2022-07-29T09:21:28.460Z,27.01
2022-07-29T09:24:10.578Z,27.18
2022-07-29T09:26:43.234Z,27.34
2022-07-29T09:29:16.327Z,27.50
2022-07-29T09:31:51.390Z,27.56
2022-07-29T09:34:26.517Z,27.59
2022-07-29T09:36:56.371Z,27.61
2022-07-29T09:39:32.863Z,27.62
2022-07-29T09:42:02.701Z,27.61
2022-07-29T09:44:47.260Z,27.62
2022-07-29T09:47:14.849Z,27.62
2022-07-29T09:50:00.671Z,27.63
2022-07-29T09:52:29.517Z,27.67
2022-07-29T09:55:10.093Z,27.70
2022-07-29T09:57:41.362Z,27.72
2022-07-29T10:00:17.643Z,27.71
2022-07-29T10:02:46.463Z,27.71
2022-07-29T10:05:36.512Z,27.72
2022-07-29T10:08:05.315Z,27.71
2022-07-29T10:10:35.910Z,27.71
2022-07-29T10:13:15.070Z,27.69
2022-07-29T10:15:46.494Z,27.66
2022-07-29T10:18:16.424Z,27.67
2022-07-29T10:20:44.024Z,27.67
2022-07-29T10:23:11.468Z,27.69
2022-07-29T10:25:45.628Z,27.73
2022-07-29T10:28:16.571Z,27.80
2022-07-29T10:30:47.758Z,27.86
2022-07-29T10:33:28.244Z,27.91
2022-07-29T10:36:25.652Z,27.97
2022-07-29T10:39:44.548Z,28.04
2022-07-29T10:42:29.711Z,28.08
2022-07-29T10:45:03.025Z,28.10
2022-07-29T10:47:32.275Z,28.14
2022-07-29T10:50:05.265Z,28.14
2022-07-29T10:52:52.175Z,28.18
2022-07-29T10:55:44.685Z,28.19
2022-07-29T10:58:24.013Z,28.23
2022-07-29T11:00:53.713Z,28.26
2022-07-29T11:03:52.143Z,28.29
2022-07-29T11:06:26.633Z,28.38
2022-07-29T11:09:34.748Z,28.45
2022-07-29T11:12:03.249Z,28.55
2022-07-29T11:15:00.403Z,28.64
2022-07-29T11:17:28.503Z,28.76
2022-07-29T11:20:37.809Z,28.91
2022-07-29T11:23:25.652Z,29.02
2022-07-29T11:26:12.802Z,29.06
2022-07-29T11:28:53.478Z,29.07
2022-07-29T11:31:34.039Z,29.01
2022-07-29T11:34:28.159Z,28.95
2022-07-29T11:37:12.614Z,28.90
2022-07-29T11:39:43.622Z,28.82
2022-07-29T11:42:32.147Z,28.86
2022-07-29T11:45:44.412Z,28.89
2022-07-29T11:48:05.869Z,28.97
2022-07-29T11:50:49.446Z,29.07
2022-07-29T11:53:17.503Z,29.12
2022-07-29T11:55:51.217Z,29.18
2022-07-29T11:58:24.887Z,29.25
2022-07-29T12:00:55.612Z,29.31
2022-07-29T12:03:40.839Z,29.34
2022-07-29T12:06:18.547Z,29.27
2022-07-29T12:08:48.731Z,29.28
2022-07-29T12:11:22.360Z,29.43
2022-07-29T12:13:52.078Z,29.58
2022-07-29T12:16:25.121Z,29.66
2022-07-29T12:18:59.379Z,29.78
2022-07-29T12:21:28.708Z,29.83
2022-07-29T12:24:04.826Z,29.83
2022-07-29T12:26:36.151Z,29.81
2022-07-29T12:29:07.323Z,29.83
2022-07-29T12:31:43.199Z,29.83
2022-07-29T12:34:16.141Z,29.79
2022-07-29T12:36:44.721Z,29.80
2022-07-29T12:39:12.767Z,29.79
2022-07-29T12:41:40.454Z,29.83
2022-07-29T12:44:08.947Z,29.84
2022-07-29T12:46:36.390Z,29.75
2022-07-29T12:49:04.725Z,29.67
2022-07-29T12:51:40.729Z,29.56
2022-07-29T12:54:13.008Z,29.52
2022-07-29T12:56:43.561Z,29.56
2022-07-29T12:59:20.122Z,29.63
2022-07-29T13:01:50.590Z,29.71
2022-07-29T13:04:34.784Z,29.74
2022-07-29T13:07:10.385Z,29.79
2022-07-29T13:09:49.151Z,29.81
2022-07-29T13:12:16.769Z,29.80
2022-07-29T13:14:46.406Z,29.77
2022-07-29T13:17:20.889Z,29.81
2022-07-29T13:19:48.455Z,29.90
2022-07-29T13:22:18.736Z,29.92
2022-07-29T13:24:56.205Z,29.95
2022-07-29T13:27:26.353Z,30.01
2022-07-29T13:29:57.863Z,30.02
2022-07-29T13:32:27.854Z,30.05
2022-07-29T13:35:00.733Z,30.06
2022-07-29T13:37:30.990Z,30.13
2022-07-29T13:39:58.764Z,30.13
2022-07-29T13:42:26.332Z,30.12
2022-07-29T13:44:53.626Z,30.10
2022-07-29T13:47:21.914Z,30.14
2022-07-29T13:49:50.572Z,30.19
2022-07-29T13:52:17.929Z,30.20
2022-07-29T13:54:45.203Z,30.14
2022-07-29T13:57:13.642Z,30.00
2022-07-29T13:59:41.662Z,29.83
2022-07-29T14:02:09.978Z,29.71
2022-07-29T14:04:37.487Z,29.68
2022-07-29T14:07:08.782Z,29.68
2022-07-29T14:09:41.499Z,29.63
2022-07-29T14:12:09.967Z,29.57
2022-07-29T14:14:38.116Z,29.50
2022-07-29T14:17:08.065Z,29.46
2022-07-29T14:19:40.571Z,29.39
2022-07-29T14:22:09.827Z,29.34
2022-07-29T14:24:38.808Z,29.33
2022-07-29T14:27:07.344Z,29.36
2022-07-29T14:29:37.425Z,29.42
2022-07-29T14:32:08.294Z,29.41
2022-07-29T14:34:39.598Z,29.40
2022-07-29T14:37:07.922Z,29.30
2022-07-29T14:39:43.273Z,29.13
2022-07-29T14:42:13.049Z,29.00
2022-07-29T14:44:42.404Z,28.93
2022-07-29T14:47:09.981Z,28.92
2022-07-29T14:49:38.052Z,28.92
2022-07-29T14:52:06.120Z,28.90
2022-07-29T14:54:33.882Z,28.83
2022-07-29T14:57:01.355Z,28.80
2022-07-29T14:59:29.621Z,28.81
2022-07-29T15:01:57.427Z,28.84
2022-07-29T15:04:25.054Z,28.84
2022-07-29T15:06:53.539Z,28.80
2022-07-29T15:09:20.878Z,28.69
2022-07-29T15:11:51.711Z,28.64
2022-07-29T15:14:19.078Z,28.58
2022-07-29T15:16:48.121Z,28.51
2022-07-29T15:19:16.355Z,28.47
2022-07-29T15:21:48.604Z,28.47
2022-07-29T15:24:19.358Z,28.48
2022-07-29T15:26:47.616Z,28.49
2022-07-29T15:29:16.726Z,28.56
2022-07-29T15:31:44.915Z,28.67
2022-07-29T15:34:12.566Z,28.72
2022-07-29T15:36:56.059Z,28.65
2022-07-29T15:39:24.044Z,28.52
2022-07-29T15:41:52.141Z,28.41
2022-07-29T15:44:20.860Z,28.30
2022-07-29T15:47:04.359Z,28.22
2022-07-29T15:49:47.689Z,28.14
2022-07-29T15:52:24.972Z,28.00
2022-07-29T15:54:58.375Z,27.82
2022-07-29T15:57:26.412Z,27.60
2022-07-29T15:59:54.327Z,27.40
2022-07-29T16:02:22.997Z,27.22
2022-07-29T16:04:53.314Z,27.05
2022-07-29T16:07:20.661Z,26.90
2022-07-29T16:09:52.772Z,26.75
2022-07-29T16:12:20.695Z,26.65
2022-07-29T16:14:52.133Z,26.60
2022-07-29T16:17:21.143Z,26.59
2022-07-29T16:19:48.933Z,26.61
2022-07-29T16:22:16.633Z,26.64
2022-07-29T16:24:44.346Z,26.69
2022-07-29T16:27:12.595Z,26.71
2022-07-29T16:29:40.482Z,26.73
2022-07-29T16:32:08.600Z,26.77
2022-07-29T16:34:37.011Z,26.74
2022-07-29T16:37:05.710Z,26.71
2022-07-29T16:39:33.570Z,26.66
2022-07-29T16:42:03.176Z,26.61
2022-07-29T16:44:33.096Z,26.58
2022-07-29T16:47:02.609Z,26.59
2022-07-29T16:49:32.414Z,26.57
2022-07-29T16:51:59.887Z,26.48
2022-07-29T16:54:28.676Z,26.40
2022-07-29T16:56:57.037Z,26.34
2022-07-29T16:59:24.794Z,26.26
2022-07-29T17:01:52.350Z,26.20
2022-07-29T17:04:20.035Z,26.14
2022-07-29T17:06:53.341Z,26.11
2022-07-29T17:09:21.696Z,26.09
2022-07-29T17:11:56.416Z,26.09
2022-07-29T17:14:25.727Z,26.10
2022-07-29T17:17:01.430Z,26.10
2022-07-29T17:19:34.013Z,26.07
2022-07-29T17:22:11.771Z,26.03
2022-07-29T17:24:44.319Z,25.96
2022-07-29T17:27:12.508Z,25.89
2022-07-29T17:29:40.255Z,25.81
2022-07-29T17:32:09.413Z,25.73
2022-07-29T17:34:43.053Z,25.64
2022-07-29T17:37:11.941Z,25.56
2022-07-29T17:39:41.540Z,25.48
2022-07-29T17:42:13.653Z,25.39
2022-07-29T17:44:41.583Z,25.31
2022-07-29T17:47:15.693Z,25.25
2022-07-29T17:49:46.184Z,25.23
2022-07-29T17:52:13.694Z,25.21
2022-07-29T17:54:41.630Z,25.14
2022-07-29T17:57:09.210Z,25.09
2022-07-29T17:59:37.281Z,25.04
2022-07-29T18:02:04.730Z,25.04
2022-07-29T18:04:32.015Z,25.15
2022-07-29T18:06:59.728Z,25.29
2022-07-29T18:09:27.343Z,25.48
2022-07-29T18:11:56.612Z,25.63
2022-07-29T18:14:24.115Z,25.76
2022-07-29T18:16:52.861Z,25.77
2022-07-29T18:19:20.318Z,25.63
2022-07-29T18:21:54.641Z,25.44
2022-07-29T18:24:25.986Z,25.21
2022-07-29T18:26:53.866Z,24.99
2022-07-29T18:29:21.718Z,24.79
2022-07-29T18:31:49.304Z,24.62
2022-07-29T18:34:17.677Z,24.46
2022-07-29T18:36:46.225Z,24.30
2022-07-29T18:39:15.433Z,24.17
2022-07-29T18:41:49.972Z,24.07
2022-07-29T18:44:21.837Z,23.92
2022-07-29T18:46:52.338Z,23.79
2022-07-29T18:49:20.277Z,23.65
2022-07-29T18:51:48.383Z,23.52
2022-07-29T18:54:16.057Z,23.40
2022-07-29T18:56:49.215Z,23.30
2022-07-29T18:59:20.074Z,23.21
2022-07-29T19:01:49.147Z,23.14
2022-07-29T19:04:17.981Z,23.08
2022-07-29T19:06:45.520Z,23.02
2022-07-29T19:09:12.875Z,22.95
2022-07-29T19:11:40.655Z,22.88
2022-07-29T19:14:08.103Z,22.82
2022-07-29T19:16:35.911Z,22.78
2022-07-29T19:19:03.416Z,22.76
2022-07-29T19:21:31.185Z,22.72
2022-07-29T19:24:05.220Z,22.69
2022-07-29T19:26:36.799Z,22.64
2022-07-29T19:29:04.827Z,22.58
2022-07-29T19:31:32.289Z,22.51
2022-07-29T19:33:59.722Z,22.41
2022-07-29T19:36:27.806Z,22.31
2022-07-29T19:38:55.051Z,22.20
2022-07-29T19:41:22.417Z,22.15
2022-07-29T19:43:52.873Z,22.09
2022-07-29T19:46:24.473Z,22.05
2022-07-29T19:48:53.447Z,22.02
2022-07-29T19:51:21.254Z,21.98
2022-07-29T19:53:49.022Z,21.94
2022-07-29T19:56:16.574Z,21.90
2022-07-29T19:58:44.945Z,21.86
2022-07-29T20:01:13.036Z,21.82
2022-07-29T20:03:40.494Z,21.77
2022-07-29T20:06:08.042Z,21.72
2022-07-29T20:08:35.502Z,21.66
2022-07-29T20:11:03.874Z,21.62
2022-07-29T20:13:33.509Z,21.57
2022-07-29T20:16:06.412Z,21.53
2022-07-29T20:18:34.034Z,21.48
2022-07-29T20:21:01.800Z,21.43
2022-07-29T20:23:33.371Z,21.38
2022-07-29T20:26:01.214Z,21.35
2022-07-29T20:28:28.574Z,21.31
2022-07-29T20:30:56.102Z,21.27
2022-07-29T20:33:23.479Z,21.24
2022-07-29T20:35:51.573Z,21.18
2022-07-29T20:38:18.815Z,21.14
2022-07-29T20:40:46.282Z,21.08
2022-07-29T20:43:13.714Z,21.05
2022-07-29T20:45:40.959Z,21.01
2022-07-29T20:48:08.517Z,20.98
2022-07-29T20:50:36.396Z,20.94
2022-07-29T20:53:04.164Z,20.90
2022-07-29T20:55:32.322Z,20.86
2022-07-29T20:57:59.586Z,20.84
2022-07-29T21:00:26.830Z,20.82
2022-07-29T21:02:54.587Z,20.81
2022-07-29T21:05:21.963Z,20.81
2022-07-29T21:07:49.508Z,20.78
2022-07-29T21:10:18.720Z,20.73
2022-07-29T21:12:49.054Z,20.65
2022-07-29T21:15:16.690Z,20.58
2022-07-29T21:17:47.656Z,20.55
2022-07-29T21:20:19.801Z,20.52
2022-07-29T21:22:50.446Z,20.49
2022-07-29T21:25:18.298Z,20.46
2022-07-29T21:28:08.002Z,20.43
2022-07-29T21:30:35.642Z,20.40
2022-07-29T21:33:04.107Z,20.39
2022-07-29T21:36:06.227Z,20.37
2022-07-29T21:38:19.855Z,20.33
2022-07-29T21:40:49.099Z,20.26
2022-07-29T21:43:18.445Z,20.23
2022-07-29T21:45:50.841Z,20.19
2022-07-29T21:48:21.960Z,20.11
2022-07-29T21:50:50.122Z,20.02
2022-07-29T21:53:18.096Z,19.93
2022-07-29T21:55:51.010Z,19.82
2022-07-29T21:58:18.725Z,19.70
2022-07-29T22:00:45.979Z,19.56
2022-07-29T22:03:13.338Z,19.47
2022-07-29T22:05:40.565Z,19.38
2022-07-29T22:08:08.269Z,19.28
2022-07-29T22:10:36.344Z,19.23
2022-07-29T22:13:04.299Z,19.22
2022-07-29T22:15:31.957Z,19.21
2022-07-29T22:17:59.605Z,19.21
2022-07-29T22:20:27.272Z,19.20
2022-07-29T22:22:54.755Z,19.20
2022-07-29T22:25:23.494Z,19.20
2022-07-29T22:27:50.651Z,19.20
2022-07-29T22:30:18.014Z,19.17
2022-07-29T22:32:45.295Z,19.15
2022-07-29T22:35:13.035Z,19.16
2022-07-29T22:37:40.405Z,19.15
2022-07-29T22:40:08.580Z,19.11
2022-07-29T22:42:35.920Z,19.07
2022-07-29T22:45:09.811Z,19.04
2022-07-29T22:47:45.802Z,19.03
2022-07-29T22:50:15.088Z,19.00
2022-07-29T22:52:42.435Z,18.97
2022-07-29T22:55:11.238Z,18.91
2022-07-29T22:57:38.578Z,18.85
2022-07-29T23:00:07.261Z,18.81
2022-07-29T23:02:37.497Z,18.80
2022-07-29T23:05:05.594Z,18.81
2022-07-29T23:07:34.853Z,18.83
2022-07-29T23:10:02.519Z,18.84
2022-07-29T23:12:29.771Z,18.86
2022-07-29T23:14:56.883Z,18.88
2022-07-29T23:17:24.376Z,18.89
2022-07-29T23:19:51.635Z,18.91
2022-07-29T23:22:18.983Z,18.92
2022-07-29T23:24:46.236Z,18.93
2022-07-29T23:27:13.595Z,18.90
2022-07-29T23:29:41.079Z,18.87
2022-07-29T23:32:09.857Z,18.84
2022-07-29T23:34:37.195Z,18.82
2022-07-29T23:37:05.061Z,18.81
2022-07-29T23:39:32.324Z,18.81
2022-07-29T23:41:59.559Z,18.82
2022-07-29T23:44:26.710Z,18.82
2022-07-29T23:46:54.083Z,18.82
2022-07-29T23:49:21.584Z,18.82
2022-07-29T23:51:49.096Z,18.84
2022-07-29T23:54:16.555Z,18.87
2022-07-29T23:56:43.798Z,18.91
2022-07-29T23:59:14.131Z,18.94
